sensor_id;sensor_type;location;lat;lon;timestamp;pressure;altitude;pressure_sealevel;temperature;humidity
53659;BME280;41524;35.624;139.698;2023-06-19T00:00:17;100211.00;;;24.72;44.93
53659;BME280;41524;35.624;139.698;2023-06-19T00:05:12;100210.00;;;23.38;46.68
53659;BME280;41524;35.624;139.698;2023-06-19T00:10:11;100209.00;;;25.04;45.31
53659;BME280;41524;35.624;139.698;2023-06-19T00:15:17;100215.00;;;23.71;47.10
53659;BME280;41524;35.624;139.698;2023-06-19T00:20:17;100221.00;;;23.25;47.40
53659;BME280;41524;35.624;139.698;2023-06-19T00:25:11;100235.00;;;23.78;47.25
53659;BME280;41524;35.624;139.698;2023-06-19T00:30:11;100233.00;;;24.35;46.63
53659;BME280;41524;35.624;139.698;2023-06-19T00:35:10;100231.00;;;23.29;48.23
53659;BME280;41524;35.624;139.698;2023-06-19T00:40:14;100234.00;;;24.05;47.85
53659;BME280;41524;35.624;139.698;2023-06-19T00:45:17;100238.00;;;23.98;48.18
53659;BME280;41524;35.624;139.698;2023-06-19T00:50:11;100237.00;;;24.14;47.74
53659;BME280;41524;35.624;139.698;2023-06-19T00:55:16;100234.00;;;25.00;46.58
53659;BME280;41524;35.624;139.698;2023-06-19T01:00:16;100243.00;;;23.95;48.03
53659;BME280;41524;35.624;139.698;2023-06-19T01:05:10;100243.00;;;24.03;48.54
53659;BME280;41524;35.624;139.698;2023-06-19T01:10:14;100245.00;;;23.75;49.44
53659;BME280;41524;35.624;139.698;2023-06-19T01:15:16;100240.00;;;25.33;47.67
53659;BME280;41524;35.624;139.698;2023-06-19T01:20:16;100246.00;;;25.40;45.19
53659;BME280;41524;35.624;139.698;2023-06-19T01:25:16;100245.00;;;25.76;44.52
53659;BME280;41524;35.624;139.698;2023-06-19T01:30:14;100246.00;;;24.19;46.84
53659;BME280;41524;35.624;139.698;2023-06-19T01:35:11;100242.00;;;24.51;45.93
53659;BME280;41524;35.624;139.698;2023-06-19T01:40:11;100247.00;;;23.85;47.86
53659;BME280;41524;35.624;139.698;2023-06-19T01:45:12;100250.00;;;23.05;49.01
53659;BME280;41524;35.624;139.698;2023-06-19T01:50:16;100252.00;;;23.98;47.67
53659;BME280;41524;35.624;139.698;2023-06-19T01:55:10;100254.00;;;24.09;48.32
53659;BME280;41524;35.624;139.698;2023-06-19T02:00:12;100254.00;;;24.53;47.81
53659;BME280;41524;35.624;139.698;2023-06-19T02:05:13;100251.00;;;24.22;47.17
53659;BME280;41524;35.624;139.698;2023-06-19T02:10:11;100244.00;;;24.02;46.54
53659;BME280;41524;35.624;139.698;2023-06-19T02:15:16;100244.00;;;25.44;44.92
53659;BME280;41524;35.624;139.698;2023-06-19T02:20:16;100238.00;;;25.02;45.46
53659;BME280;41524;35.624;139.698;2023-06-19T02:25:10;100238.00;;;25.21;45.36
53659;BME280;41524;35.624;139.698;2023-06-19T02:30:15;100241.00;;;24.61;47.08
53659;BME280;41524;35.624;139.698;2023-06-19T02:35:16;100246.00;;;24.25;47.06
53659;BME280;41524;35.624;139.698;2023-06-19T02:40:11;100241.00;;;24.95;46.62
53659;BME280;41524;35.624;139.698;2023-06-19T02:45:16;100227.00;;;24.87;47.64
53659;BME280;41524;35.624;139.698;2023-06-19T02:50:20;100228.00;;;24.39;48.96
53659;BME280;41524;35.624;139.698;2023-06-19T02:55:11;100220.00;;;25.33;46.84
53659;BME280;41524;35.624;139.698;2023-06-19T03:00:12;100215.00;;;25.11;47.86
53659;BME280;41524;35.624;139.698;2023-06-19T03:05:11;100215.00;;;23.75;49.69
53659;BME280;41524;35.624;139.698;2023-06-19T03:10:11;100216.00;;;24.27;48.62
53659;BME280;41524;35.624;139.698;2023-06-19T03:15:11;100202.00;;;25.72;47.39
53659;BME280;41524;35.624;139.698;2023-06-19T03:20:12;100200.00;;;24.82;47.54
53659;BME280;41524;35.624;139.698;2023-06-19T03:25:11;100195.00;;;26.04;46.05
53659;BME280;41524;35.624;139.698;2023-06-19T03:30:11;100197.00;;;24.38;48.00
53659;BME280;41524;35.624;139.698;2023-06-19T03:35:17;100196.00;;;24.31;49.68
53659;BME280;41524;35.624;139.698;2023-06-19T03:40:11;100190.00;;;25.95;46.83
53659;BME280;41524;35.624;139.698;2023-06-19T03:45:16;100185.00;;;25.73;46.42
53659;BME280;41524;35.624;139.698;2023-06-19T03:50:10;100183.00;;;24.46;48.13
53659;BME280;41524;35.624;139.698;2023-06-19T03:55:11;100187.00;;;25.19;47.20
53659;BME280;41524;35.624;139.698;2023-06-19T04:00:11;100191.00;;;23.87;48.48
53659;BME280;41524;35.624;139.698;2023-06-19T04:05:10;100185.00;;;24.97;47.44
53659;BME280;41524;35.624;139.698;2023-06-19T04:10:11;100182.00;;;25.11;45.76
53659;BME280;41524;35.624;139.698;2023-06-19T04:15:15;100185.00;;;25.75;45.39
53659;BME280;41524;35.624;139.698;2023-06-19T04:20:11;100183.00;;;25.49;45.34
53659;BME280;41524;35.624;139.698;2023-06-19T04:25:11;100181.00;;;26.32;43.98
53659;BME280;41524;35.624;139.698;2023-06-19T04:30:12;100172.00;;;24.93;45.78
53659;BME280;41524;35.624;139.698;2023-06-19T04:35:10;100173.00;;;25.16;46.31
53659;BME280;41524;35.624;139.698;2023-06-19T04:40:16;100175.00;;;26.24;44.58
53659;BME280;41524;35.624;139.698;2023-06-19T04:45:13;100175.00;;;25.03;46.08
53659;BME280;41524;35.624;139.698;2023-06-19T04:50:19;100187.00;;;25.05;44.77
53659;BME280;41524;35.624;139.698;2023-06-19T04:55:12;100186.00;;;25.80;44.85
53659;BME280;41524;35.624;139.698;2023-06-19T05:00:22;100193.00;;;26.79;43.76
53659;BME280;41524;35.624;139.698;2023-06-19T05:05:10;100187.00;;;23.46;46.56
53659;BME280;41524;35.624;139.698;2023-06-19T05:10:11;100186.00;;;24.50;46.66
53659;BME280;41524;35.624;139.698;2023-06-19T05:15:11;100193.00;;;24.74;45.68
53659;BME280;41524;35.624;139.698;2023-06-19T05:20:18;100186.00;;;24.17;46.82
53659;BME280;41524;35.624;139.698;2023-06-19T05:25:10;100182.00;;;25.00;45.52
53659;BME280;41524;35.624;139.698;2023-06-19T05:30:11;100184.00;;;24.66;46.58
53659;BME280;41524;35.624;139.698;2023-06-19T05:35:11;100179.00;;;24.75;46.68
53659;BME280;41524;35.624;139.698;2023-06-19T05:40:12;100171.00;;;24.11;46.82
53659;BME280;41524;35.624;139.698;2023-06-19T05:45:12;100170.00;;;24.87;46.20
53659;BME280;41524;35.624;139.698;2023-06-19T05:50:16;100162.00;;;24.81;45.39
53659;BME280;41524;35.624;139.698;2023-06-19T05:55:11;100160.00;;;24.38;46.50
53659;BME280;41524;35.624;139.698;2023-06-19T06:00:17;100162.00;;;23.22;47.98
53659;BME280;41524;35.624;139.698;2023-06-19T06:05:12;100168.00;;;23.59;47.76
53659;BME280;41524;35.624;139.698;2023-06-19T06:10:16;100163.00;;;25.40;46.89
53659;BME280;41524;35.624;139.698;2023-06-19T06:15:12;100165.00;;;24.52;47.32
53659;BME280;41524;35.624;139.698;2023-06-19T06:20:11;100173.00;;;25.77;45.30
53659;BME280;41524;35.624;139.698;2023-06-19T06:25:16;100175.00;;;25.08;45.81
53659;BME280;41524;35.624;139.698;2023-06-19T06:30:16;100181.00;;;24.12;47.53
53659;BME280;41524;35.624;139.698;2023-06-19T06:35:10;100184.00;;;23.80;48.21
53659;BME280;41524;35.624;139.698;2023-06-19T06:40:20;100203.00;;;24.54;48.11
53659;BME280;41524;35.624;139.698;2023-06-19T06:45:10;100198.00;;;24.29;48.38
53659;BME280;41524;35.624;139.698;2023-06-19T06:50:11;100205.00;;;24.98;47.70
53659;BME280;41524;35.624;139.698;2023-06-19T06:55:13;100221.00;;;23.18;49.39
53659;BME280;41524;35.624;139.698;2023-06-19T07:00:17;100222.00;;;24.18;48.75
53659;BME280;41524;35.624;139.698;2023-06-19T07:05:16;100231.00;;;23.84;49.27
53659;BME280;41524;35.624;139.698;2023-06-19T07:10:10;100237.00;;;23.95;49.20
53659;BME280;41524;35.624;139.698;2023-06-19T07:15:16;100235.00;;;23.25;50.35
53659;BME280;41524;35.624;139.698;2023-06-19T07:20:16;100237.00;;;24.81;48.40
53659;BME280;41524;35.624;139.698;2023-06-19T07:25:12;100244.00;;;22.66;52.07
53659;BME280;41524;35.624;139.698;2023-06-19T07:30:11;100236.00;;;23.01;51.63
53659;BME280;41524;35.624;139.698;2023-06-19T07:35:11;100244.00;;;23.56;51.04
53659;BME280;41524;35.624;139.698;2023-06-19T07:40:11;100231.00;;;23.15;51.88
53659;BME280;41524;35.624;139.698;2023-06-19T07:45:12;100256.00;;;23.24;51.77
53659;BME280;41524;35.624;139.698;2023-06-19T07:50:10;100252.00;;;23.73;50.36
53659;BME280;41524;35.624;139.698;2023-06-19T07:55:11;100267.00;;;22.12;53.11
53659;BME280;41524;35.624;139.698;2023-06-19T08:00:15;100271.00;;;22.83;51.63
53659;BME280;41524;35.624;139.698;2023-06-19T08:05:16;100279.00;;;22.43;51.88
53659;BME280;41524;35.624;139.698;2023-06-19T08:10:17;100282.00;;;22.61;52.49
53659;BME280;41524;35.624;139.698;2023-06-19T08:15:15;100290.00;;;23.07;51.21
53659;BME280;41524;35.624;139.698;2023-06-19T08:20:12;100302.00;;;21.50;53.52
53659;BME280;41524;35.624;139.698;2023-06-19T08:25:16;100311.00;;;22.67;51.73
53659;BME280;41524;35.624;139.698;2023-06-19T08:30:11;100321.00;;;22.64;51.29
53659;BME280;41524;35.624;139.698;2023-06-19T08:35:11;100333.00;;;21.97;52.47
53659;BME280;41524;35.624;139.698;2023-06-19T08:40:16;100332.00;;;22.25;52.43
53659;BME280;41524;35.624;139.698;2023-06-19T08:45:11;100349.00;;;21.59;52.71
53659;BME280;41524;35.624;139.698;2023-06-19T08:50:12;100363.00;;;21.77;52.90
53659;BME280;41524;35.624;139.698;2023-06-19T08:55:10;100384.00;;;22.60;51.09
53659;BME280;41524;35.624;139.698;2023-06-19T09:00:11;100380.00;;;21.90;51.86
53659;BME280;41524;35.624;139.698;2023-06-19T09:05:31;100377.00;;;21.45;52.17
53659;BME280;41524;35.624;139.698;2023-06-19T09:10:23;100375.00;;;22.15;50.95
53659;BME280;41524;35.624;139.698;2023-06-19T09:15:16;100362.00;;;21.28;52.53
53659;BME280;41524;35.624;139.698;2023-06-19T09:20:11;100381.00;;;21.42;51.48
53659;BME280;41524;35.624;139.698;2023-06-19T09:25:10;100388.00;;;20.91;51.52
53659;BME280;41524;35.624;139.698;2023-06-19T09:30:16;100390.00;;;20.37;52.64
53659;BME280;41524;35.624;139.698;2023-06-19T09:35:16;100402.00;;;21.85;50.35
53659;BME280;41524;35.624;139.698;2023-06-19T09:40:16;100420.00;;;21.51;50.92
53659;BME280;41524;35.624;139.698;2023-06-19T09:45:13;100436.00;;;21.29;51.27
53659;BME280;41524;35.624;139.698;2023-06-19T09:50:23;100446.00;;;21.36;51.77
53659;BME280;41524;35.624;139.698;2023-06-19T09:55:12;100457.00;;;20.39;53.77
53659;BME280;41524;35.624;139.698;2023-06-19T10:00:12;100471.00;;;20.09;54.44
53659;BME280;41524;35.624;139.698;2023-06-19T10:05:14;100475.00;;;19.79;55.29
53659;BME280;41524;35.624;139.698;2023-06-19T10:10:23;100480.00;;;20.74;53.15
53659;BME280;41524;35.624;139.698;2023-06-19T10:15:20;100487.00;;;21.44;52.75
53659;BME280;41524;35.624;139.698;2023-06-19T10:20:25;100493.00;;;20.26;55.02
53659;BME280;41524;35.624;139.698;2023-06-19T10:25:28;100503.00;;;21.24;52.39
53659;BME280;41524;35.624;139.698;2023-06-19T10:30:18;100512.00;;;20.90;53.19
53659;BME280;41524;35.624;139.698;2023-06-19T10:35:12;100515.00;;;21.19;52.04
53659;BME280;41524;35.624;139.698;2023-06-19T10:40:12;100524.00;;;20.33;53.44
53659;BME280;41524;35.624;139.698;2023-06-19T10:45:16;100526.00;;;19.92;55.13
53659;BME280;41524;35.624;139.698;2023-06-19T10:50:13;100537.00;;;20.52;54.33
53659;BME280;41524;35.624;139.698;2023-06-19T10:55:11;100534.00;;;20.53;54.20
53659;BME280;41524;35.624;139.698;2023-06-19T11:00:29;100536.00;;;20.86;52.76
53659;BME280;41524;35.624;139.698;2023-06-19T11:05:18;100541.00;;;21.18;51.88
53659;BME280;41524;35.624;139.698;2023-06-19T11:10:21;100544.00;;;19.61;53.45
53659;BME280;41524;35.624;139.698;2023-06-19T11:15:11;100563.00;;;21.31;50.82
53659;BME280;41524;35.624;139.698;2023-06-19T11:20:13;100581.00;;;21.04;52.08
53659;BME280;41524;35.624;139.698;2023-06-19T11:25:17;100592.00;;;21.23;51.57
53659;BME280;41524;35.624;139.698;2023-06-19T11:30:16;100596.00;;;21.34;51.49
53659;BME280;41524;35.624;139.698;2023-06-19T11:35:17;100600.00;;;21.69;50.52
53659;BME280;41524;35.624;139.698;2023-06-19T11:40:17;100608.00;;;20.87;51.81
53659;BME280;41524;35.624;139.698;2023-06-19T11:45:11;100622.00;;;20.20;51.33
53659;BME280;41524;35.624;139.698;2023-06-19T11:50:17;100629.00;;;20.62;50.00
53659;BME280;41524;35.624;139.698;2023-06-19T11:55:15;100638.00;;;19.59;52.21
53659;BME280;41524;35.624;139.698;2023-06-19T12:00:17;100640.00;;;19.98;51.73
53659;BME280;41524;35.624;139.698;2023-06-19T12:05:17;100631.00;;;20.84;49.68
53659;BME280;41524;35.624;139.698;2023-06-19T12:10:16;100639.00;;;20.29;49.95
53659;BME280;41524;35.624;139.698;2023-06-19T12:15:11;100654.00;;;20.74;50.01
53659;BME280;41524;35.624;139.698;2023-06-19T12:20:11;100657.00;;;19.34;53.11
53659;BME280;41524;35.624;139.698;2023-06-19T12:25:11;100665.00;;;20.24;51.54
53659;BME280;41524;35.624;139.698;2023-06-19T12:30:18;100670.00;;;21.27;50.18
53659;BME280;41524;35.624;139.698;2023-06-19T12:35:11;100673.00;;;19.58;51.87
53659;BME280;41524;35.624;139.698;2023-06-19T12:40:15;100672.00;;;19.97;51.19
53659;BME280;41524;35.624;139.698;2023-06-19T12:45:11;100685.00;;;19.06;52.66
53659;BME280;41524;35.624;139.698;2023-06-19T12:50:11;100686.00;;;20.02;51.73
53659;BME280;41524;35.624;139.698;2023-06-19T12:55:10;100692.00;;;20.04;51.08
53659;BME280;41524;35.624;139.698;2023-06-19T13:05:27;100712.00;;;21.25;49.03
53659;BME280;41524;35.624;139.698;2023-06-19T13:10:11;100716.00;;;20.57;49.94
53659;BME280;41524;35.624;139.698;2023-06-19T13:15:26;100731.00;;;20.69;50.14
53659;BME280;41524;35.624;139.698;2023-06-19T13:20:12;100735.00;;;20.72;49.72
53659;BME280;41524;35.624;139.698;2023-06-19T13:25:16;100742.00;;;20.74;49.49
53659;BME280;41524;35.624;139.698;2023-06-19T13:30:16;100743.00;;;21.58;48.02
53659;BME280;41524;35.624;139.698;2023-06-19T13:35:12;100746.00;;;19.91;50.71
53659;BME280;41524;35.624;139.698;2023-06-19T13:40:21;100747.00;;;19.87;51.13
53659;BME280;41524;35.624;139.698;2023-06-19T13:45:21;100749.00;;;20.63;49.80
53659;BME280;41524;35.624;139.698;2023-06-19T13:50:11;100758.00;;;20.09;50.69
53659;BME280;41524;35.624;139.698;2023-06-19T13:55:14;100759.00;;;20.17;49.96
53659;BME280;41524;35.624;139.698;2023-06-19T14:00:16;100763.00;;;20.05;50.06
53659;BME280;41524;35.624;139.698;2023-06-19T14:05:11;100755.00;;;19.27;51.71
53659;BME280;41524;35.624;139.698;2023-06-19T14:10:17;100753.00;;;19.93;51.21
53659;BME280;41524;35.624;139.698;2023-06-19T14:15:16;100749.00;;;19.98;50.28
53659;BME280;41524;35.624;139.698;2023-06-19T14:20:16;100755.00;;;19.69;50.46
53659;BME280;41524;35.624;139.698;2023-06-19T14:25:11;100752.00;;;19.51;50.04
53659;BME280;41524;35.624;139.698;2023-06-19T14:30:11;100761.00;;;19.64;49.61
53659;BME280;41524;35.624;139.698;2023-06-19T14:35:16;100752.00;;;21.19;47.61
53659;BME280;41524;35.624;139.698;2023-06-19T14:40:11;100762.00;;;20.74;47.16
53659;BME280;41524;35.624;139.698;2023-06-19T14:45:18;100768.00;;;20.00;48.49
53659;BME280;41524;35.624;139.698;2023-06-19T14:50:11;100767.00;;;19.98;47.97
53659;BME280;41524;35.624;139.698;2023-06-19T14:55:12;100766.00;;;19.87;47.76
53659;BME280;41524;35.624;139.698;2023-06-19T15:00:21;100765.00;;;19.97;47.63
53659;BME280;41524;35.624;139.698;2023-06-19T15:05:16;100770.00;;;20.15;48.45
53659;BME280;41524;35.624;139.698;2023-06-19T15:10:12;100776.00;;;19.90;48.69
53659;BME280;41524;35.624;139.698;2023-06-19T15:15:11;100778.00;;;20.52;47.98
53659;BME280;41524;35.624;139.698;2023-06-19T15:20:12;100770.00;;;21.45;45.99
53659;BME280;41524;35.624;139.698;2023-06-19T15:25:11;100767.00;;;20.59;47.02
53659;BME280;41524;35.624;139.698;2023-06-19T15:30:16;100768.00;;;20.73;46.38
53659;BME280;41524;35.624;139.698;2023-06-19T15:35:13;100773.00;;;20.19;47.76
53659;BME280;41524;35.624;139.698;2023-06-19T15:40:12;100771.00;;;20.57;47.61
53659;BME280;41524;35.624;139.698;2023-06-19T15:45:22;100768.00;;;20.55;47.87
53659;BME280;41524;35.624;139.698;2023-06-19T15:50:17;100768.00;;;20.96;47.57
53659;BME280;41524;35.624;139.698;2023-06-19T15:55:16;100768.00;;;20.10;48.87
53659;BME280;41524;35.624;139.698;2023-06-19T16:00:17;100769.00;;;20.86;48.24
53659;BME280;41524;35.624;139.698;2023-06-19T16:05:11;100769.00;;;21.16;48.21
53659;BME280;41524;35.624;139.698;2023-06-19T16:10:18;100761.00;;;20.98;48.70
53659;BME280;41524;35.624;139.698;2023-06-19T16:15:16;100763.00;;;21.47;48.62
53659;BME280;41524;35.624;139.698;2023-06-19T16:20:16;100761.00;;;20.90;48.88
53659;BME280;41524;35.624;139.698;2023-06-19T16:25:11;100757.00;;;21.19;48.37
53659;BME280;41524;35.624;139.698;2023-06-19T16:30:18;100751.00;;;19.72;51.03
53659;BME280;41524;35.624;139.698;2023-06-19T16:35:10;100754.00;;;20.43;50.06
53659;BME280;41524;35.624;139.698;2023-06-19T16:40:11;100757.00;;;21.31;49.47
53659;BME280;41524;35.624;139.698;2023-06-19T16:45:16;100754.00;;;20.90;48.95
53659;BME280;41524;35.624;139.698;2023-06-19T16:50:11;100756.00;;;20.49;50.36
53659;BME280;41524;35.624;139.698;2023-06-19T16:55:13;100752.00;;;20.51;50.13
53659;BME280;41524;35.624;139.698;2023-06-19T17:00:18;100753.00;;;21.79;48.45
53659;BME280;41524;35.624;139.698;2023-06-19T17:05:16;100752.00;;;21.14;48.57
53659;BME280;41524;35.624;139.698;2023-06-19T17:10:16;100750.00;;;21.18;49.50
53659;BME280;41524;35.624;139.698;2023-06-19T17:15:12;100750.00;;;22.31;47.29
53659;BME280;41524;35.624;139.698;2023-06-19T17:20:11;100749.00;;;21.28;48.98
53659;BME280;41524;35.624;139.698;2023-06-19T17:25:10;100745.00;;;20.80;50.76
53659;BME280;41524;35.624;139.698;2023-06-19T17:30:11;100746.00;;;20.75;50.25
53659;BME280;41524;35.624;139.698;2023-06-19T17:35:11;100742.00;;;20.54;50.39
53659;BME280;41524;35.624;139.698;2023-06-19T17:40:12;100744.00;;;20.50;51.09
53659;BME280;41524;35.624;139.698;2023-06-19T17:45:12;100749.00;;;21.36;48.87
53659;BME280;41524;35.624;139.698;2023-06-19T17:50:12;100751.00;;;20.74;50.10
53659;BME280;41524;35.624;139.698;2023-06-19T17:55:11;100752.00;;;20.77;49.24
53659;BME280;41524;35.624;139.698;2023-06-19T18:00:14;100754.00;;;21.37;49.34
53659;BME280;41524;35.624;139.698;2023-06-19T18:05:11;100761.00;;;21.18;48.54
53659;BME280;41524;35.624;139.698;2023-06-19T18:10:12;100768.00;;;20.73;49.15
53659;BME280;41524;35.624;139.698;2023-06-19T18:15:12;100764.00;;;20.47;50.34
53659;BME280;41524;35.624;139.698;2023-06-19T18:20:13;100771.00;;;20.79;49.94
53659;BME280;41524;35.624;139.698;2023-06-19T18:25:10;100760.00;;;20.93;49.46
53659;BME280;41524;35.624;139.698;2023-06-19T18:30:13;100757.00;;;20.50;50.45
53659;BME280;41524;35.624;139.698;2023-06-19T18:35:11;100759.00;;;21.58;49.35
53659;BME280;41524;35.624;139.698;2023-06-19T18:40:12;100763.00;;;21.47;48.48
53659;BME280;41524;35.624;139.698;2023-06-19T18:45:11;100771.00;;;20.10;51.54
53659;BME280;41524;35.624;139.698;2023-06-19T18:50:16;100773.00;;;20.83;49.93
53659;BME280;41524;35.624;139.698;2023-06-19T18:55:10;100776.00;;;21.08;49.16
53659;BME280;41524;35.624;139.698;2023-06-19T19:00:12;100774.00;;;20.67;50.43
53659;BME280;41524;35.624;139.698;2023-06-19T19:05:13;100782.00;;;20.23;51.53
53659;BME280;41524;35.624;139.698;2023-06-19T19:10:16;100782.00;;;21.06;49.65
53659;BME280;41524;35.624;139.698;2023-06-19T19:15:10;100789.00;;;20.02;51.44
53659;BME280;41524;35.624;139.698;2023-06-19T19:20:11;100799.00;;;20.42;50.20
53659;BME280;41524;35.624;139.698;2023-06-19T19:25:13;100795.00;;;20.66;50.97
53659;BME280;41524;35.624;139.698;2023-06-19T19:30:16;100807.00;;;19.97;53.28
53659;BME280;41524;35.624;139.698;2023-06-19T19:35:11;100818.00;;;20.79;51.65
53659;BME280;41524;35.624;139.698;2023-06-19T19:40:12;100824.00;;;20.73;52.14
53659;BME280;41524;35.624;139.698;2023-06-19T19:45:11;100824.00;;;21.17;50.41
53659;BME280;41524;35.624;139.698;2023-06-19T19:50:11;100828.00;;;21.07;50.67
53659;BME280;41524;35.624;139.698;2023-06-19T19:55:11;100831.00;;;20.34;51.30
53659;BME280;41524;35.624;139.698;2023-06-19T20:00:17;100831.00;;;20.64;50.61
53659;BME280;41524;35.624;139.698;2023-06-19T20:05:23;100844.00;;;20.00;52.58
53659;BME280;41524;35.624;139.698;2023-06-19T20:10:11;100853.00;;;19.86;53.28
53659;BME280;41524;35.624;139.698;2023-06-19T20:15:26;100849.00;;;20.53;51.59
53659;BME280;41524;35.624;139.698;2023-06-19T20:20:12;100854.00;;;20.83;51.44
53659;BME280;41524;35.624;139.698;2023-06-19T20:25:16;100859.00;;;20.74;51.37
53659;BME280;41524;35.624;139.698;2023-06-19T20:30:12;100866.00;;;20.46;51.83
53659;BME280;41524;35.624;139.698;2023-06-19T20:35:13;100865.00;;;21.34;51.23
53659;BME280;41524;35.624;139.698;2023-06-19T20:40:11;100875.00;;;20.55;52.16
53659;BME280;41524;35.624;139.698;2023-06-19T20:45:16;100875.00;;;20.28;52.95
53659;BME280;41524;35.624;139.698;2023-06-19T20:50:11;100881.00;;;21.48;51.35
53659;BME280;41524;35.624;139.698;2023-06-19T20:55:16;100889.00;;;20.87;53.66
53659;BME280;41524;35.624;139.698;2023-06-19T21:00:12;100897.00;;;21.54;51.51
53659;BME280;41524;35.624;139.698;2023-06-19T21:05:14;100906.00;;;19.76;54.88
53659;BME280;41524;35.624;139.698;2023-06-19T21:10:16;100905.00;;;20.93;52.18
53659;BME280;41524;35.624;139.698;2023-06-19T21:15:18;100913.00;;;20.36;54.74
53659;BME280;41524;35.624;139.698;2023-06-19T21:20:11;100919.00;;;20.67;53.09
53659;BME280;41524;35.624;139.698;2023-06-19T21:25:15;100923.00;;;20.32;54.15
53659;BME280;41524;35.624;139.698;2023-06-19T21:30:14;100931.00;;;21.33;54.13
53659;BME280;41524;35.624;139.698;2023-06-19T21:35:11;100938.00;;;21.23;52.17
53659;BME280;41524;35.624;139.698;2023-06-19T21:40:16;100938.00;;;20.98;52.28
53659;BME280;41524;35.624;139.698;2023-06-19T21:45:11;100941.00;;;21.76;50.30
53659;BME280;41524;35.624;139.698;2023-06-19T21:50:16;100946.00;;;20.68;52.27
53659;BME280;41524;35.624;139.698;2023-06-19T21:55:11;100953.00;;;21.84;50.37
53659;BME280;41524;35.624;139.698;2023-06-19T22:00:16;100957.00;;;22.30;50.50
53659;BME280;41524;35.624;139.698;2023-06-19T22:05:11;100960.00;;;22.05;51.07
53659;BME280;41524;35.624;139.698;2023-06-19T22:10:18;100964.00;;;22.56;50.88
53659;BME280;41524;35.624;139.698;2023-06-19T22:15:11;100970.00;;;20.52;54.32
53659;BME280;41524;35.624;139.698;2023-06-19T22:20:12;100975.00;;;21.26;53.37
53659;BME280;41524;35.624;139.698;2023-06-19T22:25:11;100981.00;;;21.80;51.79
53659;BME280;41524;35.624;139.698;2023-06-19T22:30:15;100983.00;;;21.60;54.38
53659;BME280;41524;35.624;139.698;2023-06-19T22:35:11;100984.00;;;21.16;53.48
53659;BME280;41524;35.624;139.698;2023-06-19T22:40:16;100988.00;;;21.01;53.10
53659;BME280;41524;35.624;139.698;2023-06-19T22:45:16;100983.00;;;22.33;53.42
53659;BME280;41524;35.624;139.698;2023-06-19T22:50:11;100988.00;;;21.54;52.13
53659;BME280;41524;35.624;139.698;2023-06-19T22:55:12;100985.00;;;21.28;53.69
53659;BME280;41524;35.624;139.698;2023-06-19T23:00:14;100991.00;;;21.45;53.43
53659;BME280;41524;35.624;139.698;2023-06-19T23:05:12;100999.00;;;21.22;52.56
53659;BME280;41524;35.624;139.698;2023-06-19T23:10:11;101003.00;;;21.57;51.71
53659;BME280;41524;35.624;139.698;2023-06-19T23:15:12;101007.00;;;21.42;52.46
53659;BME280;41524;35.624;139.698;2023-06-19T23:20:12;101013.00;;;22.21;50.57
53659;BME280;41524;35.624;139.698;2023-06-19T23:25:11;101009.00;;;20.99;51.19
53659;BME280;41524;35.624;139.698;2023-06-19T23:30:16;101011.00;;;21.19;51.15
53659;BME280;41524;35.624;139.698;2023-06-19T23:35:16;101005.00;;;21.46;50.23
53659;BME280;41524;35.624;139.698;2023-06-19T23:40:16;101006.00;;;21.89;50.29
53659;BME280;41524;35.624;139.698;2023-06-19T23:45:16;101001.00;;;21.13;51.13
53659;BME280;41524;35.624;139.698;2023-06-19T23:50:16;101003.00;;;21.70;49.68
53659;BME280;41524;35.624;139.698;2023-06-19T23:55:22;101000.00;;;22.31;48.51
